Station: Daly Waters

  Atmospheric Gas Attenuation - ITU Rec 676-11   --------------- db/100km ---------------
Date Time Temp RH % AH g/m3 Dew Point Wind Direction Speed kph Gust kph Barometer mB Rainfall Since 9am 24GHz 47GHz 76GHz 122GHz 134GHz 241GHz
11 23:00 23.4 51 10.72 12.7 4 7 1011.4 0 23.6 26.4 43.0 113.1 112.5 388.9
11 22:50 23.8 49 10.54 12.7 4 6 1013.1 0 23.2 26.0 42.2 111.0 109.8 379.7
11 22:40 24.1 50 10.94 13 6 6 1013.1 0 24.0 26.6 43.5 114.6 114.3 395.5
11 22:30 24.1 51 11.16 13.3 4 6 1013.1 0 24.5 26.9 44.4 116.8 117.1 405.1
11 22:20 24.1 48 10.5 12.4 4 6 1013.1 0 23.1 25.9 41.9 110.1 108.9 376.6
11 22:10 24.7 47 10.64 12.9 4 6 1013.1 0 23.3 25.9 42.1 110.7 109.8 379.7
11 22:00 25.4 45 10.59 12.9 6 6 1011.3 0 23.2 25.6 41.5 109.1 108.1 373.8
11 21:50 25.8 46 11.07 13.3 6 6 1013.1 0 24.2 26.3 43.1 113.4 113.5 392.8
11 21:40 26.1 44 10.77 12.9 6 7 1013.1 0 23.5 25.7 41.8 110.1 109.4 378.6
11 21:30 26.2 45 11.08 13.3 6 9 1011 0 24.2 26.1 42.8 112.8 112.8 390.6
11 21:20 26.2 45 11.08 13.6 7 7 1013.1 0 24.2 26.1 42.9 113.0 113.0 391.2
11 21:10 26.3 45 11.14 13.7 6 6 1013.1 0 24.3 26.2 43.1 113.4 113.6 393.3
11 21:00 26.4 47 11.7 14.2 6 7 1010.8 0 25.5 26.9 45.0 118.6 120.1 416.0
11 20:50 26.2 47 11.57 14 6 7 1013.1 0 25.2 26.9 44.7 117.8 119.0 412.2
11 20:40 26.6 46 11.58 14 6 6 1013.1 0 25.2 26.8 44.6 117.4 118.5 410.6
11 20:30 26.9 46 11.77 14.3 6 7 1010.5 0 25.6 26.9 45.0 118.5 120.2 416.3
11 20:20 27.1 44 11.39 14.1 6 6 1013.1 0 24.8 26.4 43.6 114.8 115.5 399.9
11 20:10 27.1 45 11.65 14.4 7 7 1013.1 0 25.3 26.7 44.5 117.3 118.6 411.0
11 20:00 26.9 46 11.77 14.6 6 7 1010.1 0 25.6 26.9 45.0 118.5 120.1 416.2
11 19:50 26.8 49 12.47 15.2 6 6 1013.1 0 27.0 28.1 47.8 126.0 129.3 448.1
11 19:40 26.5 50 12.52 15.5 6 6 1013.1 0 27.2 28.3 48.2 127.0 130.4 452.0
11 19:30 27 48 12.35 15.1 6 6 1009.9 0 26.8 27.7 47.1 124.1 127.1 440.6
11 19:20 27.4 47 12.37 15.1 6 6 1013.1 0 26.8 27.7 47.1 124.1 127.0 440.4
11 19:10 27.8 46 12.37 15.1 6 6 1013.1 0 26.8 27.6 46.8 123.5 126.4 438.2
11 19:00 28.5 43 12.02 14.7 6 6 1009.7 0 26.0 26.8 45.0 118.6 120.7 418.4
11 18:50 29.6 38 11.28 14.1 6 6 1013.1 0 24.4 25.5 41.9 110.2 110.6 383.2
11 18:40 30.2 35 10.73 13.4 6 6 1013.1 0 23.2 24.5 39.6 104.3 103.5 358.3
11 18:30 31.1 34 10.94 13.4 6 9 1009.4 0 23.6 24.5 39.8 104.7 104.4 361.6
11 18:20 31.9 31 10.41 13.1 7 9 1013.1 0 22.5 23.6 37.8 99.3 97.8 338.6
11 18:10 32.5 31 10.75 13.6 7 9 1013.1 0 23.1 24.0 38.6 101.6 100.8 349.2
11 18:00 33 31 11.04 13.6 7 13 1009.2 0 23.7 24.1 39.2 103.2 103.1 357.2
11 17:50 33.5 30 10.97 14 6 7 1013.1 0 23.5 24.0 38.9 102.3 102.0 353.4
11 17:40 33.9 28 10.46 13.3 9 11 1013.1 0 22.5 23.2 37.0 97.4 96.0 332.4
11 17:30 34.2 29 11 13.6 9 15 1009.1 0 23.6 23.7 38.5 101.4 101.1 350.4
11 17:20 34.5 28 10.79 13.8 6 7 1013.1 0 23.1 23.5 37.8 99.5 98.8 342.3
11 17:10 34.6 28 10.85 13.9 9 11 1013.1 0 23.2 23.6 38.0 99.9 99.3 344.2
11 17:00 34.7 28 10.9 14 9 19 1009 0 23.3 23.5 37.9 99.9 99.4 344.5
11 16:50 34.8 28 10.96 14.1 11 15 1013.1 0 23.4 23.7 38.3 100.7 100.3 347.5
11 16:40 35.2 28 11.19 14.4 11 13 1013.1 0 23.9 23.9 38.8 102.2 102.3 354.5
11 16:30 35.3 29 11.65 14.6 9 19 1009 0 24.8 24.3 40.1 105.7 106.8 370.3
11 16:20 35.1 27 10.74 13.8 7 11 1013.1 0 23.0 23.3 37.4 98.4 97.6 338.0
11 16:10 35.5 28 11.37 14.2 7 7 1013.1 0 24.2 24.0 39.3 103.4 103.8 360.0
11 16:00 35.6 28 11.43 14.8 7 15 1008.9 0 24.4 23.9 39.3 103.4 104.0 360.6
11 15:50 35.2 28 11.19 14.4 6 7 1013.1 0 23.9 23.9 38.8 102.2 102.3 354.5
11 15:40 35.3 28 11.25 14 7 9 1013.1 0 24.0 23.9 39.0 102.6 102.8 356.3
11 15:30 35.8 27 11.13 14.4 7 19 1008.9 0 23.7 23.5 38.2 100.5 100.5 348.5
11 15:20 35.1 29 11.53 14.4 7 9 1013.1 0 24.6 24.3 40.0 105.3 106.1 367.9
11 15:10 35.6 28 11.43 14.8 6 7 1013.1 0 24.4 24.1 39.4 103.8 104.3 361.8
11 15:00 35.3 30 12.05 15.1 11 22 1009.1 0 25.7 24.9 41.5 109.3 111.2 385.7
11 14:50 35.4 29 11.71 15.1 11 15 1013.1 0 24.9 24.5 40.4 106.5 107.6 373.4
11 14:40 35.3 29 11.65 15 6 6 1013.1 0 24.8 24.4 40.3 106.1 107.1 371.6
11 14:30 35.1 30 11.93 15.4 9 20 1009.4 0 25.4 24.8 41.2 108.5 110.1 382.1
11 14:20 35.1 29 11.53 14.9 11 13 1013.1 0 24.6 24.3 40.0 105.3 106.1 367.9
11 14:10 34.7 30 11.68 15 9 13 1013.1 0 24.9 24.6 40.7 107.2 108.2 375.4
11 14:00 35 30 11.87 15.3 6 13 1009.5 0 25.3 24.7 41.0 108.1 109.6 380.3
11 13:50 35 31 12.26 15.8 11 13 1013.1 0 26.1 25.4 42.5 112.0 114.3 396.5
11 13:40 34.7 31 12.07 15.5 11 15 1013.1 0 25.7 25.2 42.0 110.7 112.6 390.6
11 13:30 34.4 31 11.88 15.3 13 20 1009.9 0 25.4 24.9 41.4 109.0 110.6 383.6
11 13:20 34.5 33 12.72 16.3 9 15 1013.1 0 27.1 26.1 44.3 116.9 120.2 417.2
11 13:10 34.7 33 12.85 16.5 6 7 1013.1 0 27.3 26.3 44.7 117.8 121.4 421.4
11 13:00 34.4 33 12.65 15.8 7 15 1010.2 0 26.9 26.0 44.0 116.1 119.3 414.0
11 12:50 34.3 32 12.2 15.7 7 11 1013.1 0 26.0 25.5 42.7 112.4 114.6 397.6
11 12:40 34.6 33 12.78 16.4 11 15 1013.1 0 27.2 26.2 44.5 117.3 120.7 419.1
11 12:30 34.4 34 13.03 16.3 9 17 1010.6 0 27.7 26.5 45.4 119.7 123.6 429.3
11 12:20 34.6 35 13.56 16.9 7 13 1013.1 0 28.8 27.3 47.2 124.6 129.7 450.5
11 12:10 33.6 33 12.13 15.5 6 7 1013.1 0 25.9 25.6 42.8 112.7 114.8 398.2
11 12:00 34.5 33 12.72 15.9 7 11 1011.1 0 27.1 26.1 44.3 116.7 120.0 416.6
11 11:50 33.8 33 12.26 15.7 9 11 1013.1 0 26.2 25.7 43.1 113.6 116.0 402.4
11 11:40 33.5 34 12.43 15.9 7 9 1013.1 0 26.5 26.0 43.9 115.6 118.4 410.7
11 11:30 33.8 35 13 16.6 6 9 1011.6 0 27.7 26.7 45.6 120.4 124.3 431.6
11 11:20 33.3 36 13.02 16.2 6 7 1013.1 0 27.8 26.9 46.1 121.5 125.5 435.6
11 11:10 32.9 38 13.46 16.7 9 11 1013.1 0 28.7 27.7 47.9 126.3 131.3 455.9
11 11:00 32.7 38 13.32 16.9 7 13 1012.1 0 28.4 27.5 47.4 125.1 129.9 450.9
11 10:50 32.7 38 13.32 16.9 6 7 1013.1 0 28.4 27.5 47.5 125.3 130.0 451.2
11 10:40 32.1 41 13.92 17.5 6 9 1013.1 0 29.7 28.6 50.0 132.1 138.2 480.0
11 10:30 31.6 40 13.22 16.7 9 17 1012.3 0 28.3 27.7 47.7 125.9 130.5 453.0
11 10:20 31.4 41 13.41 16.9 9 11 1013.1 0 28.7 28.1 48.6 128.2 133.2 462.4
11 10:10 31.2 42 13.59 17.1 13 17 1013.1 0 29.1 28.4 49.4 130.3 135.7 471.2
11 10:00 31.1 44 14.16 17.4 9 19 1012.5 0 30.3 29.3 51.6 136.1 142.9 496.2
11 09:50 31.1 46 14.8 18.1 7 9 1013.1 0 31.6 30.3 54.0 142.7 151.0 524.4
11 09:40 30.2 46 14.1 17.6 7 9 1013.1 0 30.2 29.5 51.9 137.1 143.8 499.4
11 09:30 29.6 47 13.95 17.4 15 22 1012.6 0 29.9 29.5 51.7 136.5 143.0 496.4
11 09:20 29.5 49 14.46 17.9 13 17 1013.1 0 31.0 30.3 53.8 142.0 149.7 519.9
11 09:10 29 50 14.36 17.8 15 19 1013.1 0 30.8 30.3 53.7 141.9 149.4 518.7
11 09:00 28.5 53 14.82 18 13 20 1012.6 0 31.8 31.2 55.9 147.6 156.3 542.7
11 08:50 28 55 14.96 18.1 15 22 1013.1 0 32.2 31.6 56.8 150.1 159.2 552.8
11 08:40 27.8 57 15.33 18.7 9 15 1013.1 0 33.0 32.3 58.5 154.5 164.6 571.5
11 08:30 27.3 60 15.7 18.9 17 32 1012 0 33.8 33.1 60.4 159.5 170.6 592.3
11 08:20 26.7 62 15.69 19 11 13 1013.1 0 33.8 33.3 60.8 160.7 171.9 596.9
11 08:10 26.2 65 16 19.3 4 4 1013.1 0 34.5 34.1 62.6 165.3 177.4 615.8
11 08:00 25.6 68 16.19 19.3 4 6 1011.2 0 35.0 34.6 63.8 168.5 181.2 629.2
11 07:50 25 72 16.57 19.6 2 4 1013.1 0 35.8 35.6 66.0 174.5 188.4 654.1
11 07:40 23.9 77 16.66 19.6 0 0 1013.1 0 36.1 36.2 67.4 178.1 192.5 668.1
11 07:30 23.3 81 16.93 19.9 2 4 1011 0 36.7 36.9 69.0 182.5 197.7 686.4
11 07:20 21.9 85 16.4 19.2 0 0 1013.1 0 35.7 36.6 68.0 179.7 193.7 672.2
11 07:10 21.3 87 16.22 19 2 4 1013.1 0 35.4 36.5 67.7 178.9 192.5 668.1
11 07:00 20.8 88 15.93 18.7 2 4 1010.7 0 34.8 36.1 66.6 176.1 189.1 656.0
11 06:50 20.9 88 16.03 18.8 4 4 1013.1 0 35.0 36.3 67.2 177.5 190.7 661.6
11 06:40 20.9 88 16.03 18.8 0 2 1013.1 0 35.0 36.3 67.2 177.5 190.7 661.6
11 06:30 21.1 88 16.21 19 0 0 1010.3 0 35.4 36.4 67.7 178.8 192.5 668.0

Last Refresh: 11-Apr-2021 23:04:14

Bureau of Meteorology